Time;durP1;ratioP1;P1;durP2;ratioP2;P2;SDS_P1;SDS_P2;PMS_P1;PMS_P2;Temp;Humidity;BMP_temperature;BMP_pressure;BME280_temperature;BME280_humidity;BME280_pressure;Samples;Min_cycle;Max_cycle;Signal;HPM_P1;HPM_P2
2021/06/22 00:00:19;;;;;;;4.75;2.03;;;;;;;16.05;80.22;95182.16;4974833;28;20703;-76
2021/06/22 00:02:45;;;;;;;4.60;2.10;;;;;;;16.13;80.06;95192.50;4995487;28;20183;-75
2021/06/22 00:05:11;;;;;;;3.47;1.80;;;;;;;16.17;80.17;95192.94;4982362;28;20201;-76
2021/06/22 00:07:36;;;;;;;2.05;1.95;;;;;;;16.26;79.91;95193.63;4974771;28;20192;-76
2021/06/22 00:10:04;;;;;;;2.67;1.90;;;;;;;16.20;79.96;95184.69;4974816;28;20214;-76
2021/06/22 00:12:29;;;;;;;3.22;2.33;;;;;;;16.17;79.83;95172.00;4978850;28;20246;-76
2021/06/22 00:14:54;;;;;;;3.33;2.45;;;;;;;16.24;79.39;95174.63;4984697;28;20207;-76
2021/06/22 00:17:19;;;;;;;2.70;2.50;;;;;;;16.17;79.09;95169.38;5003129;28;20211;-76
2021/06/22 00:19:45;;;;;;;3.13;2.88;;;;;;;15.92;80.11;95161.13;5011641;28;20214;-75
2021/06/22 00:22:10;;;;;;;3.10;2.70;;;;;;;16.05;80.16;95157.78;4994114;28;20270;-76
2021/06/22 00:24:35;;;;;;;3.30;3.00;;;;;;;16.03;80.48;95151.94;5002385;28;20250;-76
2021/06/22 00:27:01;;;;;;;3.35;2.92;;;;;;;16.06;79.99;95147.13;4992547;28;20182;-76
2021/06/22 00:29:27;;;;;;;3.35;3.05;;;;;;;16.03;80.38;95152.75;5011493;28;20186;-76
2021/06/22 00:31:52;;;;;;;3.38;3.08;;;;;;;15.99;80.22;95148.91;5011371;28;20175;-76
2021/06/22 00:34:17;;;;;;;3.72;3.17;;;;;;;15.98;80.93;95152.50;4989038;28;20202;-76
2021/06/22 00:36:43;;;;;;;3.75;3.45;;;;;;;15.95;80.72;95145.03;4982383;28;20257;-76
2021/06/22 00:39:08;;;;;;;4.03;3.20;;;;;;;15.90;80.69;95147.38;4974499;28;20187;-76
2021/06/22 00:41:34;;;;;;;4.38;3.33;;;;;;;15.94;80.58;95146.03;4974486;28;20172;-75
2021/06/22 00:44:06;;;;;;;3.78;3.05;;;;;;;15.95;80.59;95152.88;4974093;28;20242;-77
2021/06/22 00:46:32;;;;;;;3.45;3.10;;;;;;;15.97;80.51;95155.31;4992300;28;20226;-76
2021/06/22 00:48:57;;;;;;;3.75;3.03;;;;;;;15.99;81.71;95154.13;4975147;28;20296;-76
2021/06/22 00:51:22;;;;;;;2.95;2.65;;;;;;;16.02;80.81;95156.38;4998284;28;20553;-76
2021/06/22 00:53:48;;;;;;;4.25;3.22;;;;;;;16.01;80.91;95159.19;4978931;28;20199;-76
2021/06/22 00:56:14;;;;;;;2.83;2.63;;;;;;;16.01;80.99;95156.56;4999543;28;20682;-76
2021/06/22 00:58:39;;;;;;;3.13;2.83;;;;;;;15.95;80.37;95150.25;4993582;28;20183;-76
2021/06/22 01:01:04;;;;;;;4.43;3.30;;;;;;;15.79;81.22;95145.31;4984650;28;20194;-76
2021/06/22 01:03:30;;;;;;;3.03;2.80;;;;;;;15.70;81.92;95143.81;4996190;28;20187;-76
2021/06/22 01:05:55;;;;;;;3.35;3.10;;;;;;;15.72;81.64;95147.03;5005390;28;20198;-76
2021/06/22 01:08:21;;;;;;;3.38;3.08;;;;;;;15.68;81.94;95151.88;4977613;28;20176;-76
2021/06/22 01:10:46;;;;;;;3.63;3.38;;;;;;;15.66;82.22;95150.44;4977624;28;20223;-76
2021/06/22 01:13:11;;;;;;;3.40;3.10;;;;;;;15.71;81.94;95148.06;4977358;28;20187;-76
2021/06/22 01:15:37;;;;;;;4.90;3.03;;;;;;;15.67;82.16;95147.63;4985765;28;20207;-76
2021/06/22 01:18:04;;;;;;;3.33;3.10;;;;;;;15.66;82.56;95139.97;5013198;28;20179;-76
2021/06/22 01:20:31;;;;;;;3.30;3.00;;;;;;;15.69;82.58;95144.81;4997008;28;20205;-76
2021/06/22 01:22:58;;;;;;;3.15;2.95;;;;;;;15.69;82.91;95144.81;4996991;28;20263;-75
2021/06/22 01:25:23;;;;;;;4.25;3.10;;;;;;;15.72;82.45;95145.25;4990635;28;20195;-76
2021/06/22 01:27:48;;;;;;;3.60;3.30;;;;;;;15.72;82.28;95136.56;5002598;28;20188;-75
2021/06/22 01:30:14;;;;;;;3.75;3.17;;;;;;;15.70;82.51;95141.19;4977484;28;20235;-76
2021/06/22 01:32:41;;;;;;;4.22;3.28;;;;;;;15.69;82.31;95144.81;4994801;28;20254;-76
2021/06/22 01:35:07;;;;;;;5.35;2.85;;;;;;;15.77;81.94;95136.84;4978228;28;20208;-76
2021/06/22 01:37:33;;;;;;;5.28;2.83;;;;;;;15.72;82.53;95133.97;4988444;28;20609;-76
2021/06/22 01:40:05;;;;;;;4.28;3.25;;;;;;;15.69;82.32;95134.34;4978954;28;20196;-76
2021/06/22 01:42:30;;;;;;;3.50;3.20;;;;;;;15.59;82.63;95139.88;4976790;28;20242;-76
2021/06/22 01:44:56;;;;;;;3.80;3.03;;;;;;;15.59;82.64;95145.91;4994109;28;20200;-76
2021/06/22 01:47:22;;;;;;;4.93;3.30;;;;;;;15.56;82.39;95151.53;5002718;28;20187;-76
2021/06/22 01:49:56;;;;;;;6.45;3.30;;;;;;;15.47;82.77;95146.63;4993096;28;20183;-76
2021/06/22 01:52:22;;;;;;;3.47;3.13;;;;;;;15.54;82.33;95147.47;4996359;28;20197;-76
2021/06/22 01:54:47;;;;;;;2.88;2.55;;;;;;;15.53;82.61;95157.13;5013677;28;20654;-76
2021/06/22 01:57:12;;;;;;;3.33;2.85;;;;;;;15.53;82.77;95149.28;4992776;28;20190;-76
2021/06/22 01:59:41;;;;;;;3.90;3.55;;;;;;;15.54;82.78;95153.50;5002187;28;20180;-76
2021/06/22 02:02:06;;;;;;;3.90;2.70;;;;;;;15.44;82.84;95160.06;4994248;28;20176;-76
2021/06/22 02:04:34;;;;;;;3.28;2.97;;;;;;;15.40;82.98;95156.22;4976388;28;20178;-76
2021/06/22 02:06:59;;;;;;;2.90;2.55;;;;;;;15.35;83.20;95162.00;4976867;28;20199;-76
2021/06/22 02:09:24;;;;;;;3.05;2.72;;;;;;;15.42;82.87;95157.63;5004589;28;20650;-76
2021/06/22 02:11:50;;;;;;;3.10;2.80;;;;;;;15.33;83.16;95158.75;4979280;28;20246;-76
2021/06/22 02:14:15;;;;;;;3.33;3.03;;;;;;;15.34;83.20;95149.91;4976472;28;20216;-76
2021/06/22 02:16:40;;;;;;;3.38;2.78;;;;;;;15.46;82.99;95150.22;4976481;28;20246;-76
2021/06/22 02:19:05;;;;;;;3.22;3.00;;;;;;;15.50;83.07;95151.47;4986252;28;20184;-76
2021/06/22 02:21:31;;;;;;;3.33;2.67;;;;;;;15.54;82.93;95137.00;4970748;28;20196;-76
2021/06/22 02:23:56;;;;;;;2.38;2.28;;;;;;;15.65;82.18;95140.97;4993571;28;20219;-76
2021/06/22 02:26:21;;;;;;;2.67;2.47;;;;;;;15.54;82.53;95127.34;4976442;28;20575;-76
2021/06/22 02:28:47;;;;;;;3.50;3.10;;;;;;;15.51;83.08;95138.19;4979913;28;20322;-76
2021/06/22 02:31:12;;;;;;;2.67;2.47;;;;;;;15.51;82.90;95117.25;5001554;28;20631;-75
2021/06/22 02:33:37;;;;;;;3.40;2.80;;;;;;;15.53;83.21;95135.38;4993426;28;20208;-76
2021/06/22 02:36:03;;;;;;;2.45;2.25;;;;;;;15.62;82.61;95128.25;4993249;28;20217;-75
2021/06/22 02:38:28;;;;;;;3.28;2.58;;;;;;;15.52;83.17;95134.56;4976082;28;20188;-76
2021/06/22 02:40:54;;;;;;;3.17;2.80;;;;;;;15.52;83.39;95126.72;4985093;28;20702;-76
2021/06/22 02:43:19;;;;;;;5.40;2.70;;;;;;;15.50;83.29;95130.53;4982172;28;20239;-76
2021/06/22 02:45:44;;;;;;;2.63;2.42;;;;;;;15.48;83.63;95128.13;4993330;28;20655;-76
2021/06/22 02:48:10;;;;;;;6.07;2.58;;;;;;;15.53;83.64;95130.16;4975766;28;20214;-76
2021/06/22 02:50:37;;;;;;;3.30;3.00;;;;;;;15.51;83.39;95127.72;4985516;28;20211;-76
2021/06/22 02:53:03;;;;;;;3.33;3.03;;;;;;;15.48;83.34;95133.34;4987215;28;20171;-76
2021/06/22 02:55:28;;;;;;;2.92;2.63;;;;;;;15.50;83.41;95126.09;4978660;28;20210;-76
2021/06/22 02:57:56;;;;;;;2.92;2.65;;;;;;;15.48;83.22;95128.13;5011727;28;20183;-76
2021/06/22 03:00:27;;;;;;;4.28;2.90;;;;;;;15.45;83.40;95112.78;4994022;28;20553;-76
2021/06/22 03:02:53;;;;;;;3.30;3.00;;;;;;;15.48;83.38;95117.66;5003552;28;20673;-76
2021/06/22 03:05:19;;;;;;;3.08;2.83;;;;;;;15.54;83.15;95105.59;4975309;28;20196;-76
2021/06/22 03:07:44;;;;;;;3.53;2.80;;;;;;;15.56;82.79;95103.63;4959486;28;20223;-76
2021/06/22 03:10:12;;;;;;;4.22;2.75;;;;;;;15.67;82.45;95099.72;4992852;28;20203;-76
2021/06/22 03:12:37;;;;;;;3.35;3.05;;;;;;;15.53;82.87;95094.31;4983616;28;20187;-75
2021/06/22 03:15:05;;;;;;;3.15;2.50;;;;;;;15.52;83.30;95097.94;4983000;28;20218;-77
2021/06/22 03:17:30;;;;;;;3.33;3.03;;;;;;;15.50;83.16;95097.31;4975291;28;20179;-76
2021/06/22 03:19:56;;;;;;;3.60;3.30;;;;;;;15.56;83.23;95096.59;4992746;28;20183;-76
2021/06/22 03:22:21;;;;;;;3.97;3.33;;;;;;;15.54;83.64;95097.75;4999051;28;20179;-76
2021/06/22 03:24:46;;;;;;;3.65;3.30;;;;;;;15.54;83.52;95105.59;5003793;28;20187;-76
2021/06/22 03:27:12;;;;;;;4.65;3.70;;;;;;;15.54;83.57;95101.16;5012341;28;20183;-76
2021/06/22 03:29:37;;;;;;;6.03;3.42;;;;;;;15.71;82.62;95101.75;4994593;28;20206;-76
2021/06/22 03:32:03;;;;;;;4.35;3.42;;;;;;;15.70;83.11;95107.16;5012271;28;20179;-76
2021/06/22 03:34:28;;;;;;;3.45;3.13;;;;;;;15.68;82.61;95099.50;4984958;28;20190;-76
2021/06/22 03:36:54;;;;;;;3.85;3.55;;;;;;;15.68;82.92;95096.91;4961392;28;20195;-76
2021/06/22 03:39:19;;;;;;;3.33;3.03;;;;;;;15.77;82.71;95100.19;4975143;28;20179;-76
2021/06/22 03:41:44;;;;;;;5.20;3.70;;;;;;;15.73;83.25;95101.56;4974933;28;20636;-76
2021/06/22 03:44:10;;;;;;;4.57;3.58;;;;;;;15.73;83.04;95089.28;4982327;28;20184;-75
2021/06/22 03:46:35;;;;;;;4.75;3.70;;;;;;;15.75;83.19;95100.38;5000264;28;20199;-76
2021/06/22 03:49:00;;;;;;;5.20;3.30;;;;;;;15.90;82.45;95092.41;4974948;28;20182;-76
2021/06/22 03:51:26;;;;;;;3.40;3.10;;;;;;;15.81;83.13;95091.78;4974949;28;20292;-76
2021/06/22 03:53:51;;;;;;;5.40;3.30;;;;;;;15.78;83.31;95091.31;4960857;28;20183;-76
2021/06/22 03:56:17;;;;;;;4.63;3.70;;;;;;;15.81;83.55;95081.31;4986080;28;20218;-76
2021/06/22 03:58:43;;;;;;;6.47;3.95;;;;;;;15.85;83.41;95076.47;4994238;28;20661;-75
2021/06/22 04:01:08;;;;;;;3.72;3.42;;;;;;;15.85;83.19;95076.47;4994298;28;20194;-75
2021/06/22 04:03:34;;;;;;;3.92;3.60;;;;;;;15.82;83.60;95076.88;4993923;28;20179;-76
2021/06/22 04:05:59;;;;;;;4.28;3.58;;;;;;;15.95;82.94;95071.69;4968588;28;20203;-76
2021/06/22 04:08:25;;;;;;;5.43;3.60;;;;;;;15.95;82.95;95063.84;4980934;28;20581;-76
2021/06/22 04:10:50;;;;;;;4.35;3.95;;;;;;;16.10;82.41;95061.13;4974653;28;20196;-76
2021/06/22 04:13:15;;;;;;;5.32;3.88;;;;;;;15.93;82.96;95049.34;4995971;28;20183;-76
2021/06/22 04:15:41;;;;;;;4.03;3.67;;;;;;;15.92;83.48;95056.38;5003243;28;20714;-75
2021/06/22 04:18:08;;;;;;;4.57;4.18;;;;;;;15.97;83.22;95058.41;5011699;28;20254;-76
2021/06/22 04:20:35;;;;;;;5.10;3.88;;;;;;;15.99;83.44;95065.09;5011626;28;20229;-76
2021/06/22 04:23:01;;;;;;;7.53;4.20;;;;;;;16.02;83.13;95071.75;4994092;28;20182;-76
2021/06/22 04:25:27;;;;;;;5.70;4.07;;;;;;;16.01;83.45;95081.41;4997962;28;20683;-76
2021/06/22 04:27:52;;;;;;;4.80;4.25;;;;;;;16.07;83.39;95092.91;5001324;28;20179;-76
2021/06/22 04:30:18;;;;;;;5.68;4.38;;;;;;;16.62;81.93;95099.06;4974604;28;20303;-76
2021/06/22 04:32:43;;;;;;;8.18;4.40;;;;;;;16.67;81.23;95113.19;4992374;28;20176;-76
2021/06/22 04:35:09;;;;;;;4.78;4.20;;;;;;;16.61;81.28;95119.22;5001897;28;20224;-76
2021/06/22 04:37:35;;;;;;;5.20;3.75;;;;;;;16.53;81.81;95124.63;4986242;28;20191;-76
2021/06/22 04:40:00;;;;;;;6.10;3.63;;;;;;;16.45;81.78;95113.50;4978306;28;20540;-76
2021/06/22 04:42:25;;;;;;;5.75;4.22;;;;;;;16.30;82.64;95122.28;4977860;28;20636;-76
2021/06/22 04:44:51;;;;;;;3.88;3.53;;;;;;;16.35;82.76;95119.09;4979070;28;20291;-76
2021/06/22 04:47:16;;;;;;;6.00;3.80;;;;;;;16.42;82.56;95125.97;4988763;28;20182;-76
2021/06/22 04:49:41;;;;;;;5.28;3.97;;;;;;;16.34;82.67;95123.53;4997508;28;20175;-76
2021/06/22 04:52:09;;;;;;;4.55;3.92;;;;;;;16.53;82.34;95119.41;4997467;28;20187;-76
2021/06/22 04:54:34;;;;;;;5.38;3.55;;;;;;;16.90;80.98;95123.41;4997435;28;20638;-76
2021/06/22 04:56:59;;;;;;;6.03;3.40;;;;;;;16.95;80.83;95125.41;5005689;28;20238;-75
2021/06/22 04:59:25;;;;;;;4.70;4.30;;;;;;;16.91;80.61;95137.31;4988713;28;20183;-76
2021/06/22 05:01:50;;;;;;;4.38;3.78;;;;;;;16.74;81.06;95133.41;5005454;28;20174;-76
2021/06/22 05:04:15;;;;;;;4.63;4.10;;;;;;;16.66;81.86;95140.41;4980851;28;20182;-75
2021/06/22 05:06:41;;;;;;;4.13;3.80;;;;;;;16.52;82.07;95145.78;5013802;28;20211;-76
2021/06/22 05:09:06;;;;;;;4.38;3.97;;;;;;;16.19;83.57;95150.84;4986328;28;20192;-76
2021/06/22 05:11:32;;;;;;;8.75;4.38;;;;;;;16.00;84.46;95147.91;4995206;28;20199;-76
2021/06/22 05:13:57;;;;;;;6.47;4.20;;;;;;;15.82;86.04;95155.41;4977649;28;20495;-76
2021/06/22 05:16:23;;;;;;;5.82;4.30;;;;;;;15.94;85.46;95155.69;4994955;28;20203;-76
2021/06/22 05:18:48;;;;;;;4.90;4.00;;;;;;;15.74;85.94;95155.53;5002836;28;20187;-76
2021/06/22 05:21:14;;;;;;;5.88;4.07;;;;;;;15.98;85.11;95167.41;4996946;28;20527;-76
2021/06/22 05:23:40;;;;;;;5.70;4.65;;;;;;;15.91;84.92;95164.75;4996633;28;20183;-76
2021/06/22 05:26:05;;;;;;;4.85;4.45;;;;;;;15.94;85.50;95163.56;4980489;28;20199;-76
2021/06/22 05:28:30;;;;;;;6.68;4.60;;;;;;;15.89;85.28;95165.91;4990672;28;20191;-76
2021/06/22 05:30:56;;;;;;;4.82;4.43;;;;;;;15.90;85.00;95170.97;5002702;28;20207;-76
2021/06/22 05:33:22;;;;;;;6.38;4.70;;;;;;;15.97;85.39;95166.59;4977100;28;20234;-76
2021/06/22 05:35:47;;;;;;;5.85;4.78;;;;;;;15.94;85.66;95166.97;4977326;28;20207;-76
2021/06/22 05:38:13;;;;;;;6.45;4.38;;;;;;;16.01;85.31;95167.84;4962491;28;20643;-76
2021/06/22 05:40:38;;;;;;;5.22;4.72;;;;;;;16.02;85.71;95182.56;4988387;28;20218;-76
2021/06/22 05:43:03;;;;;;;5.30;4.80;;;;;;;16.09;85.42;95183.41;4977968;28;20176;-76
2021/06/22 05:45:29;;;;;;;5.20;4.75;;;;;;;16.10;85.13;95181.59;4975557;28;20218;-76
2021/06/22 05:47:54;;;;;;;5.53;4.88;;;;;;;16.10;85.23;95184.22;4977122;28;20180;-76
2021/06/22 05:50:20;;;;;;;6.00;4.78;;;;;;;16.12;85.22;95182.22;4983623;28;20211;-76
2021/06/22 05:52:46;;;;;;;6.00;5.40;;;;;;;16.16;85.23;95188.69;5010261;28;20186;-76
2021/06/22 05:55:20;;;;;;;8.32;7.47;;;;;;;16.13;84.54;95189.88;4979843;28;20261;-76
2021/06/22 05:57:47;;;;;;;10.23;8.05;;;;;;;16.12;84.67;95193.50;4997470;28;20206;-76
2021/06/22 06:00:18;;;;;;;9.38;8.48;;;;;;;16.10;84.43;95194.72;4992384;28;20183;-75
2021/06/22 06:02:43;;;;;;;8.82;8.13;;;;;;;16.05;84.43;95195.25;4984408;28;20183;-76
2021/06/22 06:05:09;;;;;;;8.63;7.82;;;;;;;16.08;84.25;95202.75;4976439;28;20261;-76
2021/06/22 06:07:35;;;;;;;9.40;8.23;;;;;;;16.18;83.88;95197.19;4993866;28;20279;-76
2021/06/22 06:10:02;;;;;;;9.05;7.85;;;;;;;16.09;83.70;95191.28;4960182;28;20227;-76
2021/06/22 06:12:28;;;;;;;8.30;7.45;;;;;;;16.13;83.77;95197.75;5004041;28;20206;-76
2021/06/22 06:14:53;;;;;;;7.57;6.47;;;;;;;16.17;83.60;95200.81;4978716;28;20204;-76
2021/06/22 06:17:18;;;;;;;6.38;5.80;;;;;;;16.23;83.77;95192.16;4976535;28;20172;-76
2021/06/22 06:19:44;;;;;;;5.53;5.00;;;;;;;16.32;83.37;95195.44;4976508;28;20219;-76
2021/06/22 06:22:09;;;;;;;6.32;5.75;;;;;;;16.23;82.36;95188.75;4983344;28;20180;-76
2021/06/22 06:24:35;;;;;;;5.95;5.35;;;;;;;16.37;81.75;95193.09;4990519;28;20210;-76
2021/06/22 06:27:06;;;;;;;6.95;5.68;;;;;;;16.37;82.16;95198.31;4979217;28;20206;-76
2021/06/22 06:29:41;;;;;;;6.22;5.35;;;;;;;16.38;81.95;95206.00;5013229;28;20202;-76
2021/06/22 06:32:07;;;;;;;6.72;6.10;;;;;;;16.40;81.57;95206.59;4994241;28;20192;-76
2021/06/22 06:34:32;;;;;;;8.40;5.80;;;;;;;16.49;81.75;95209.06;5001085;28;20219;-75
2021/06/22 06:36:58;;;;;;;7.25;5.40;;;;;;;16.42;81.68;95219.50;4976000;28;20192;-76
2021/06/22 06:39:23;;;;;;;7.28;6.63;;;;;;;16.43;81.51;95223.75;4975843;28;20230;-76
2021/06/22 06:41:48;;;;;;;7.10;6.50;;;;;;;16.22;81.26;95227.22;4975973;28;20301;-75
2021/06/22 06:44:13;;;;;;;6.90;6.30;;;;;;;16.33;81.29;95223.28;4985609;28;20183;-76
2021/06/22 06:46:39;;;;;;;8.10;7.40;;;;;;;16.19;82.10;95232.06;4980242;28;20204;-76
2021/06/22 06:49:04;;;;;;;7.95;6.47;;;;;;;16.21;82.13;95225.63;4993167;28;20247;-76
2021/06/22 06:51:29;;;;;;;8.57;7.68;;;;;;;16.23;82.29;95223.59;4993244;28;20214;-76
2021/06/22 06:53:55;;;;;;;8.65;7.95;;;;;;;16.36;82.21;95225.53;5000186;28;20274;-76
2021/06/22 06:56:20;;;;;;;9.82;8.07;;;;;;;16.41;82.07;95233.63;4987994;28;20228;-75
2021/06/22 06:58:46;;;;;;;9.98;9.10;;;;;;;16.36;82.40;95236.81;5011140;28;20258;-76
2021/06/22 07:01:11;;;;;;;10.30;9.35;;;;;;;16.52;82.06;95229.66;5012655;28;20182;-75
2021/06/22 07:03:37;;;;;;;10.75;9.60;;;;;;;16.66;81.28;95231.34;5010295;28;20202;-76
2021/06/22 07:06:02;;;;;;;11.43;10.20;;;;;;;16.66;81.27;95232.16;4984500;28;20207;-76
2021/06/22 07:08:28;;;;;;;11.23;10.23;;;;;;;16.80;81.05;95227.03;4992905;28;20242;-76
2021/06/22 07:10:53;;;;;;;11.30;10.15;;;;;;;16.87;81.01;95231.31;4975223;28;20212;-76
2021/06/22 07:13:19;;;;;;;10.32;9.32;;;;;;;17.02;80.34;95236.44;4974984;28;20313;-75
2021/06/22 07:15:46;;;;;;;10.13;8.95;;;;;;;17.06;79.37;95249.97;4981006;28;20595;-75
2021/06/22 07:18:11;;;;;;;9.68;8.77;;;;;;;17.60;78.81;95255.22;4975212;28;20180;-75
2021/06/22 07:20:37;;;;;;;9.48;8.68;;;;;;;17.88;77.65;95257.72;4992675;28;20172;-75
2021/06/22 07:23:02;;;;;;;9.00;8.10;;;;;;;18.17;76.50;95259.19;4992862;28;20269;-75
2021/06/22 07:25:27;;;;;;;9.27;7.65;;;;;;;18.28;75.61;95268.28;4996499;28;20207;-74
2021/06/22 07:27:54;;;;;;;8.25;7.30;;;;;;;18.36;74.65;95262.81;4985522;28;20559;-75
2021/06/22 07:30:23;;;;;;;8.13;7.38;;;;;;;18.48;74.20;95263.84;4975089;28;20196;-78
2021/06/22 07:32:49;;;;;;;8.05;7.25;;;;;;;18.44;74.53;95269.69;4976071;28;20172;-77
2021/06/22 07:35:14;;;;;;;11.48;9.45;;;;;;;18.40;72.78;95279.81;4975261;28;20293;-76
2021/06/22 07:37:41;;;;;;;9.10;8.18;;;;;;;18.27;73.59;95259.56;4986234;28;20702;-75
2021/06/22 07:40:08;;;;;;;7.38;6.47;;;;;;;18.45;72.29;95260.78;4975953;28;20551;-76
2021/06/22 07:42:33;;;;;;;6.65;6.05;;;;;;;18.53;72.27;95260.59;4974938;28;20487;-75
2021/06/22 07:44:59;;;;;;;7.15;6.55;;;;;;;18.76;71.25;95276.78;4974645;28;20237;-75
2021/06/22 07:47:24;;;;;;;6.97;6.30;;;;;;;18.49;72.22;95283.06;4981489;28;20239;-76
2021/06/22 07:49:49;;;;;;;6.90;6.28;;;;;;;18.22;72.01;95272.53;5000329;28;20184;-75
2021/06/22 07:52:15;;;;;;;5.82;5.20;;;;;;;18.14;72.29;95272.72;4958701;28;20239;-76
2021/06/22 07:54:40;;;;;;;7.00;6.40;;;;;;;17.96;73.67;95265.44;4958385;28;20215;-76
2021/06/22 07:57:06;;;;;;;8.05;7.25;;;;;;;17.61;75.58;95264.72;4976137;28;20270;-75
2021/06/22 07:59:31;;;;;;;8.75;7.90;;;;;;;17.28;77.49;95267.22;4985662;28;20639;-76
2021/06/22 08:01:56;;;;;;;8.95;7.60;;;;;;;17.51;76.14;95274.78;4994162;28;20187;-76
2021/06/22 08:04:21;;;;;;;9.15;8.25;;;;;;;17.82;74.75;95259.34;4993959;28;20316;-76
2021/06/22 08:06:47;;;;;;;7.47;6.18;;;;;;;18.49;73.47;95254.13;5011709;28;20294;-76
2021/06/22 08:09:13;;;;;;;6.95;6.25;;;;;;;18.47;74.16;95245.66;5002137;28;20181;-76
2021/06/22 08:11:38;;;;;;;6.43;5.30;;;;;;;18.80;70.16;95251.66;4996505;28;20211;-76
2021/06/22 08:14:03;;;;;;;5.35;4.82;;;;;;;18.81;68.40;95252.47;4991972;28;20243;-76
2021/06/22 08:16:28;;;;;;;4.95;4.47;;;;;;;19.18;68.96;95259.69;4984028;28;20678;-76
2021/06/22 08:18:54;;;;;;;5.47;4.60;;;;;;;20.16;66.52;95275.22;4976996;28;20184;-76
2021/06/22 08:21:19;;;;;;;8.35;5.57;;;;;;;20.86;63.99;95283.00;4974631;28;20640;-76
2021/06/22 08:23:44;;;;;;;5.18;4.68;;;;;;;21.43;62.02;95284.44;4974306;28;20651;-76
2021/06/22 08:26:10;;;;;;;4.47;4.07;;;;;;;21.08;62.55;95294.75;4981534;28;20207;-76
2021/06/22 08:28:36;;;;;;;4.82;4.43;;;;;;;21.14;62.43;95285.97;4969636;28;20180;-76
2021/06/22 08:31:02;;;;;;;4.80;4.40;;;;;;;20.69;63.30;95287.22;4990799;28;20762;-76
2021/06/22 08:33:27;;;;;;;5.45;4.90;;;;;;;20.14;64.15;95284.34;4990715;28;20211;-76
2021/06/22 08:35:52;;;;;;;4.88;4.30;;;;;;;19.96;66.90;95283.22;4991647;28;20279;-76
2021/06/22 08:38:18;;;;;;;6.30;5.40;;;;;;;19.89;66.46;95282.50;5002932;28;20182;-76
2021/06/22 08:40:44;;;;;;;4.75;4.35;;;;;;;20.18;64.25;95275.00;4993985;28;20175;-76
2021/06/22 08:43:11;;;;;;;4.63;4.22;;;;;;;20.15;64.09;95280.72;4993865;28;20537;-74
2021/06/22 08:45:37;;;;;;;6.55;4.72;;;;;;;19.88;65.20;95275.59;4993769;28;20218;-76
2021/06/22 08:48:09;;;;;;;5.75;4.60;;;;;;;19.84;66.05;95279.66;4985531;28;20188;-76
2021/06/22 08:50:35;;;;;;;5.30;4.80;;;;;;;19.79;66.16;95274.25;4963352;28;20207;-75
2021/06/22 08:53:00;;;;;;;4.68;4.28;;;;;;;19.83;65.85;95285.97;4991660;28;20580;-76
2021/06/22 08:55:26;;;;;;;5.95;5.35;;;;;;;19.87;68.26;95292.41;4991600;28;20203;-77
2021/06/22 08:57:54;;;;;;;7.70;7.00;;;;;;;19.34;70.45;95300.50;4981797;28;20187;-77
2021/06/22 09:00:20;;;;;;;7.20;6.40;;;;;;;19.50;69.38;95299.25;4999388;28;20172;-76
2021/06/22 09:02:45;;;;;;;8.05;6.70;;;;;;;19.36;69.85;95302.97;4974328;28;20211;-76
2021/06/22 09:05:10;;;;;;;7.50;6.80;;;;;;;19.50;68.95;95302.69;4973915;28;20219;-76
2021/06/22 09:07:56;;;;;;;8.80;6.95;;;;;;;19.18;69.31;95316.78;4973975;28;20267;-75
2021/06/22 09:10:23;;;;;;;6.95;6.35;;;;;;;19.16;69.07;95310.91;4996418;28;20199;-76
2021/06/22 09:12:49;;;;;;;7.45;6.75;;;;;;;18.70;71.32;95311.78;4993592;28;20233;-76
2021/06/22 09:15:18;;;;;;;6.85;6.05;;;;;;;18.91;71.20;95316.84;4993517;28;20195;-76
2021/06/22 09:17:46;;;;;;;6.93;6.32;;;;;;;18.82;71.61;95310.19;5010977;28;20171;-76
2021/06/22 09:20:12;;;;;;;6.88;6.18;;;;;;;18.60;72.83;95311.34;4987074;28;20226;-75
2021/06/22 09:22:37;;;;;;;6.90;6.20;;;;;;;18.40;74.54;95300.84;4982175;28;20188;-75
2021/06/22 09:25:11;;;;;;;6.60;6.00;;;;;;;18.15;74.10;95315.56;4977604;28;20191;-76
2021/06/22 09:27:45;;;;;;;7.82;7.03;;;;;;;18.22;76.33;95322.47;4977679;28;20175;-76
2021/06/22 09:30:11;;;;;;;7.82;6.82;;;;;;;18.13;74.60;95323.66;5001211;28;20286;-76
2021/06/22 09:32:36;;;;;;;9.65;6.70;;;;;;;18.56;73.85;95325.94;4975814;28;20270;-76
2021/06/22 09:35:21;;;;;;;8.05;7.25;;;;;;;18.79;72.73;95318.44;4996440;28;20625;-76
2021/06/22 09:37:55;;;;;;;8.57;7.45;;;;;;;19.16;72.49;95327.50;4996991;28;20183;-76
2021/06/22 09:40:27;;;;;;;8.88;7.97;;;;;;;19.23;70.92;95335.38;4994857;28;20178;-76
2021/06/22 09:42:54;;;;;;;10.30;8.45;;;;;;;18.99;73.15;95338.66;4988632;28;20234;-76
2021/06/22 09:45:21;;;;;;;7.80;7.10;;;;;;;19.32;71.78;95338.59;4996210;28;20237;-76
2021/06/22 09:47:46;;;;;;;7.28;6.57;;;;;;;19.18;70.94;95343.09;5014074;28;20645;-76
2021/06/22 09:50:44;;;;;;;8.32;7.53;;;;;;;19.15;70.54;95348.75;4996529;28;20199;-75
2021/06/22 09:53:30;;;;;;;8.32;7.50;;;;;;;19.33;70.91;95346.28;4988876;28;20195;-74
2021/06/22 09:55:57;;;;;;;7.70;7.00;;;;;;;19.44;71.05;95344.88;4976954;28;20191;-76
2021/06/22 09:58:36;;;;;;;7.38;6.50;;;;;;;19.27;71.55;95341.88;4976892;28;20211;-76
2021/06/22 10:01:02;;;;;;;6.82;6.22;;;;;;;19.17;69.45;95344.09;4994026;28;20666;-76
2021/06/22 10:03:37;;;;;;;7.63;6.82;;;;;;;18.82;70.69;95335.69;4987839;28;20322;-76
2021/06/22 10:06:07;;;;;;;7.75;6.22;;;;;;;18.58;72.77;95323.91;4961678;28;20199;-76
2021/06/22 10:08:50;;;;;;;8.55;7.70;;;;;;;18.36;74.02;95336.41;4994179;28;20171;-76
2021/06/22 10:11:54;;;;;;;8.30;7.45;;;;;;;18.14;74.36;95338.41;4976390;28;20231;-76
2021/06/22 10:14:25;;;;;;;8.75;7.72;;;;;;;17.98;75.66;95341.41;4936514;29;20192;-75
2021/06/22 10:16:51;;;;;;;10.00;7.20;;;;;;;18.17;76.05;95355.59;4936900;29;20216;-76
2021/06/22 10:19:16;;;;;;;8.40;7.63;;;;;;;18.33;75.27;95356.03;4936961;29;20177;-75
2021/06/22 10:21:42;;;;;;;10.20;8.77;;;;;;;18.14;74.72;95359.44;4936704;29;20177;-76
2021/06/22 10:24:07;;;;;;;9.43;8.52;;;;;;;18.34;74.27;95364.72;4945011;29;20197;-76
2021/06/22 10:26:33;;;;;;;8.80;7.57;;;;;;;18.28;74.30;95360.25;4947656;29;20205;-75
2021/06/22 10:29:00;;;;;;;8.63;7.82;;;;;;;18.04;74.87;95361.66;4952781;29;20645;-76
2021/06/22 10:31:26;;;;;;;9.35;8.23;;;;;;;17.69;76.17;95364.31;4936102;29;20219;-76
2021/06/22 10:33:51;;;;;;;10.75;8.93;;;;;;;17.49;77.17;95369.50;4946941;29;20185;-76
2021/06/22 10:36:23;;;;;;;9.68;8.68;;;;;;;17.47;78.14;95371.47;4936694;29;20221;-76
2021/06/22 10:38:49;;;;;;;9.70;8.68;;;;;;;17.38;78.52;95366.59;4944271;29;20193;-76
2021/06/22 10:41:15;;;;;;;10.43;8.98;;;;;;;17.30;78.67;95358.88;4933472;29;20174;-76
2021/06/22 10:43:40;;;;;;;10.35;9.25;;;;;;;17.47;78.97;95365.41;4932943;29;20194;-75
2021/06/22 10:46:13;;;;;;;9.10;8.20;;;;;;;17.65;78.05;95363.06;4949654;28;20284;-75
2021/06/22 10:48:44;;;;;;;8.93;7.22;;;;;;;17.49;78.04;95360.78;4921442;28;20185;-76
2021/06/22 10:51:26;;;;;;;9.25;8.35;;;;;;;17.61;78.29;95347.94;4995073;28;20203;-76
2021/06/22 10:53:51;;;;;;;10.85;9.75;;;;;;;17.45;78.43;95339.38;4994947;28;20270;-75
2021/06/22 10:56:17;;;;;;;12.10;10.18;;;;;;;17.62;79.09;95339.84;4986792;28;20349;-75
2021/06/22 10:59:11;;;;;;;12.65;9.80;;;;;;;17.81;76.56;95340.94;4979343;28;20187;-76
2021/06/22 11:01:49;;;;;;;10.40;9.07;;;;;;;17.53;77.87;95348.91;4993024;28;20168;-76
2021/06/22 11:04:14;;;;;;;10.40;9.40;;;;;;;17.55;78.54;95354.75;4992866;28;20176;-75
2021/06/22 11:06:39;;;;;;;11.32;10.23;;;;;;;17.49;79.38;95355.53;4983127;28;20196;-75
2021/06/22 11:09:16;;;;;;;10.32;9.32;;;;;;;17.24;78.96;95361.28;4982981;28;20282;-76
2021/06/22 11:11:41;;;;;;;11.90;9.63;;;;;;;16.94;80.33;95370.34;4992887;28;20206;-75
2021/06/22 11:14:07;;;;;;;11.30;8.85;;;;;;;16.84;81.04;95375.94;4975341;28;20176;-76
2021/06/22 11:16:33;;;;;;;10.95;9.82;;;;;;;17.02;81.69;95391.19;4984030;28;20234;-75
2021/06/22 11:19:09;;;;;;;9.15;8.20;;;;;;;17.25;81.30;95383.09;5004357;28;20187;-77
2021/06/22 11:21:38;;;;;;;8.55;7.63;;;;;;;17.24;80.07;95384.91;4978923;28;20178;-75
2021/06/22 11:24:15;;;;;;;9.55;8.40;;;;;;;17.36;79.33;95384.34;4994365;28;20270;-75
2021/06/22 11:26:53;;;;;;;9.52;8.52;;;;;;;17.37;79.54;95392.03;5011200;28;20297;-75
2021/06/22 11:29:43;;;;;;;9.25;8.27;;;;;;;17.51;78.46;95391.09;5000749;28;20278;-75